sensor_id;sensor_type;location;lat;lon;timestamp;P1;durP1;ratioP1;P2;durP2;ratioP2
34134;SDS011;20410;55.578;12.968;2023-08-21T00:01:58;11.75;;;4.68;;
34134;SDS011;20410;55.578;12.968;2023-08-21T00:04:24;12.95;;;4.75;;
34134;SDS011;20410;55.578;12.968;2023-08-21T00:06:50;7.85;;;4.00;;
34134;SDS011;20410;55.578;12.968;2023-08-21T00:09:15;10.00;;;4.93;;
34134;SDS011;20410;55.578;12.968;2023-08-21T00:11:41;7.22;;;3.85;;
34134;SDS011;20410;55.578;12.968;2023-08-21T00:14:06;8.20;;;3.97;;
34134;SDS011;20410;55.578;12.968;2023-08-21T00:16:32;8.70;;;4.10;;
34134;SDS011;20410;55.578;12.968;2023-08-21T00:18:57;9.05;;;3.92;;
34134;SDS011;20410;55.578;12.968;2023-08-21T00:21:23;11.00;;;4.05;;
34134;SDS011;20410;55.578;12.968;2023-08-21T00:23:49;9.98;;;4.07;;
34134;SDS011;20410;55.578;12.968;2023-08-21T00:26:14;8.52;;;4.47;;
34134;SDS011;20410;55.578;12.968;2023-08-21T00:28:40;9.60;;;3.75;;
34134;SDS011;20410;55.578;12.968;2023-08-21T00:31:05;10.68;;;4.90;;
34134;SDS011;20410;55.578;12.968;2023-08-21T00:33:31;10.32;;;4.45;;
34134;SDS011;20410;55.578;12.968;2023-08-21T00:35:57;10.57;;;4.50;;
34134;SDS011;20410;55.578;12.968;2023-08-21T00:38:23;11.90;;;4.53;;
34134;SDS011;20410;55.578;12.968;2023-08-21T00:40:49;7.90;;;4.10;;
34134;SDS011;20410;55.578;12.968;2023-08-21T00:43:15;11.15;;;4.90;;
34134;SDS011;20410;55.578;12.968;2023-08-21T00:45:41;12.05;;;4.47;;
34134;SDS011;20410;55.578;12.968;2023-08-21T00:48:09;12.80;;;5.05;;
34134;SDS011;20410;55.578;12.968;2023-08-21T00:50:35;16.38;;;4.95;;
34134;SDS011;20410;55.578;12.968;2023-08-21T00:53:01;9.02;;;4.70;;
34134;SDS011;20410;55.578;12.968;2023-08-21T00:55:28;9.48;;;4.30;;
34134;SDS011;20410;55.578;12.968;2023-08-21T00:57:54;11.10;;;4.70;;
34134;SDS011;20410;55.578;12.968;2023-08-21T01:00:20;9.05;;;3.97;;
34134;SDS011;20410;55.578;12.968;2023-08-21T01:02:47;10.75;;;4.50;;
34134;SDS011;20410;55.578;12.968;2023-08-21T01:05:13;10.07;;;4.28;;
34134;SDS011;20410;55.578;12.968;2023-08-21T01:07:43;12.02;;;4.82;;
34134;SDS011;20410;55.578;12.968;2023-08-21T01:10:20;9.52;;;4.72;;
34134;SDS011;20410;55.578;12.968;2023-08-21T01:13:01;12.27;;;5.22;;
34134;SDS011;20410;55.578;12.968;2023-08-21T01:15:49;10.02;;;4.10;;
34134;SDS011;20410;55.578;12.968;2023-08-21T01:18:18;10.73;;;4.88;;
34134;SDS011;20410;55.578;12.968;2023-08-21T01:20:44;9.75;;;4.28;;
34134;SDS011;20410;55.578;12.968;2023-08-21T01:23:10;10.80;;;4.97;;
34134;SDS011;20410;55.578;12.968;2023-08-21T01:25:50;10.30;;;4.50;;
34134;SDS011;20410;55.578;12.968;2023-08-21T01:28:16;9.48;;;4.43;;
34134;SDS011;20410;55.578;12.968;2023-08-21T01:30:42;8.98;;;4.38;;
34134;SDS011;20410;55.578;12.968;2023-08-21T01:33:10;10.07;;;4.53;;
34134;SDS011;20410;55.578;12.968;2023-08-21T01:35:39;9.32;;;4.60;;
34134;SDS011;20410;55.578;12.968;2023-08-21T01:38:05;11.77;;;5.63;;
34134;SDS011;20410;55.578;12.968;2023-08-21T01:40:31;10.93;;;5.28;;
34134;SDS011;20410;55.578;12.968;2023-08-21T01:42:57;11.73;;;5.00;;
34134;SDS011;20410;55.578;12.968;2023-08-21T01:45:22;11.07;;;4.70;;
34134;SDS011;20410;55.578;12.968;2023-08-21T01:47:48;11.40;;;5.10;;
34134;SDS011;20410;55.578;12.968;2023-08-21T01:50:14;13.60;;;5.68;;
34134;SDS011;20410;55.578;12.968;2023-08-21T01:52:39;10.63;;;5.47;;
34134;SDS011;20410;55.578;12.968;2023-08-21T01:55:05;13.27;;;5.10;;
34134;SDS011;20410;55.578;12.968;2023-08-21T01:57:35;12.38;;;5.38;;
34134;SDS011;20410;55.578;12.968;2023-08-21T02:00:01;17.65;;;6.20;;
34134;SDS011;20410;55.578;12.968;2023-08-21T02:02:29;11.45;;;4.85;;
34134;SDS011;20410;55.578;12.968;2023-08-21T02:04:55;14.18;;;6.25;;
34134;SDS011;20410;55.578;12.968;2023-08-21T02:07:20;11.20;;;5.82;;
34134;SDS011;20410;55.578;12.968;2023-08-21T02:09:46;17.30;;;5.90;;
34134;SDS011;20410;55.578;12.968;2023-08-21T02:12:11;16.98;;;7.15;;
34134;SDS011;20410;55.578;12.968;2023-08-21T02:14:37;14.38;;;6.20;;
34134;SDS011;20410;55.578;12.968;2023-08-21T02:17:02;12.77;;;6.40;;
34134;SDS011;20410;55.578;12.968;2023-08-21T02:19:28;16.90;;;6.40;;
34134;SDS011;20410;55.578;12.968;2023-08-21T02:21:53;12.40;;;6.35;;
34134;SDS011;20410;55.578;12.968;2023-08-21T02:24:19;17.50;;;7.05;;
34134;SDS011;20410;55.578;12.968;2023-08-21T02:26:44;16.92;;;6.95;;
34134;SDS011;20410;55.578;12.968;2023-08-21T02:29:11;18.70;;;7.53;;
34134;SDS011;20410;55.578;12.968;2023-08-21T02:31:36;11.85;;;6.10;;
34134;SDS011;20410;55.578;12.968;2023-08-21T02:34:02;13.63;;;6.35;;
34134;SDS011;20410;55.578;12.968;2023-08-21T02:36:27;16.63;;;6.95;;
34134;SDS011;20410;55.578;12.968;2023-08-21T02:38:53;16.23;;;7.07;;
34134;SDS011;20410;55.578;12.968;2023-08-21T02:41:20;13.90;;;6.72;;
34134;SDS011;20410;55.578;12.968;2023-08-21T02:43:45;18.38;;;6.60;;
34134;SDS011;20410;55.578;12.968;2023-08-21T02:46:11;15.93;;;5.75;;
34134;SDS011;20410;55.578;12.968;2023-08-21T02:48:36;15.75;;;7.47;;
34134;SDS011;20410;55.578;12.968;2023-08-21T02:51:02;12.70;;;5.72;;
34134;SDS011;20410;55.578;12.968;2023-08-21T02:53:28;17.63;;;7.30;;
34134;SDS011;20410;55.578;12.968;2023-08-21T02:55:54;8.75;;;5.35;;
34134;SDS011;20410;55.578;12.968;2023-08-21T02:58:20;14.70;;;6.20;;
34134;SDS011;20410;55.578;12.968;2023-08-21T03:00:45;14.02;;;6.50;;
34134;SDS011;20410;55.578;12.968;2023-08-21T03:03:11;15.35;;;6.60;;
34134;SDS011;20410;55.578;12.968;2023-08-21T03:05:36;18.75;;;6.32;;
34134;SDS011;20410;55.578;12.968;2023-08-21T03:08:02;18.67;;;7.07;;
34134;SDS011;20410;55.578;12.968;2023-08-21T03:10:28;16.35;;;7.13;;
34134;SDS011;20410;55.578;12.968;2023-08-21T03:12:58;15.25;;;6.30;;
34134;SDS011;20410;55.578;12.968;2023-08-21T03:15:24;14.65;;;6.45;;
34134;SDS011;20410;55.578;12.968;2023-08-21T03:17:49;15.60;;;6.57;;
34134;SDS011;20410;55.578;12.968;2023-08-21T03:20:15;16.85;;;6.05;;
34134;SDS011;20410;55.578;12.968;2023-08-21T03:22:42;13.38;;;6.35;;
34134;SDS011;20410;55.578;12.968;2023-08-21T03:25:08;15.43;;;6.28;;
34134;SDS011;20410;55.578;12.968;2023-08-21T03:27:34;17.48;;;6.70;;
34134;SDS011;20410;55.578;12.968;2023-08-21T03:30:04;17.17;;;6.20;;
34134;SDS011;20410;55.578;12.968;2023-08-21T03:32:31;14.60;;;5.63;;
34134;SDS011;20410;55.578;12.968;2023-08-21T03:34:57;17.00;;;6.22;;
34134;SDS011;20410;55.578;12.968;2023-08-21T03:37:23;13.20;;;6.15;;
34134;SDS011;20410;55.578;12.968;2023-08-21T03:39:48;16.38;;;6.32;;
34134;SDS011;20410;55.578;12.968;2023-08-21T03:42:14;13.50;;;5.50;;
34134;SDS011;20410;55.578;12.968;2023-08-21T03:44:39;16.88;;;5.95;;
34134;SDS011;20410;55.578;12.968;2023-08-21T03:47:05;15.93;;;5.93;;
34134;SDS011;20410;55.578;12.968;2023-08-21T03:49:31;12.38;;;5.22;;
34134;SDS011;20410;55.578;12.968;2023-08-21T03:51:56;11.68;;;5.78;;
34134;SDS011;20410;55.578;12.968;2023-08-21T03:54:22;11.98;;;5.28;;
34134;SDS011;20410;55.578;12.968;2023-08-21T03:56:47;11.52;;;5.35;;
34134;SDS011;20410;55.578;12.968;2023-08-21T03:59:13;11.77;;;5.50;;
34134;SDS011;20410;55.578;12.968;2023-08-21T04:01:38;10.20;;;4.85;;
34134;SDS011;20410;55.578;12.968;2023-08-21T04:04:04;13.75;;;5.45;;
34134;SDS011;20410;55.578;12.968;2023-08-21T04:06:29;13.73;;;5.25;;
34134;SDS011;20410;55.578;12.968;2023-08-21T04:08:55;16.23;;;5.15;;
34134;SDS011;20410;55.578;12.968;2023-08-21T04:11:21;14.77;;;4.88;;
34134;SDS011;20410;55.578;12.968;2023-08-21T04:13:46;10.68;;;5.15;;
34134;SDS011;20410;55.578;12.968;2023-08-21T04:16:12;11.02;;;4.43;;
34134;SDS011;20410;55.578;12.968;2023-08-21T04:18:38;13.23;;;4.82;;
34134;SDS011;20410;55.578;12.968;2023-08-21T04:21:03;11.60;;;4.75;;
34134;SDS011;20410;55.578;12.968;2023-08-21T04:23:29;14.85;;;5.13;;
34134;SDS011;20410;55.578;12.968;2023-08-21T04:26:01;13.35;;;4.78;;
34134;SDS011;20410;55.578;12.968;2023-08-21T04:28:29;12.15;;;4.63;;
34134;SDS011;20410;55.578;12.968;2023-08-21T04:30:55;13.88;;;5.00;;
34134;SDS011;20410;55.578;12.968;2023-08-21T04:33:22;10.63;;;4.40;;
34134;SDS011;20410;55.578;12.968;2023-08-21T04:35:52;14.25;;;5.03;;
34134;SDS011;20410;55.578;12.968;2023-08-21T04:38:18;12.50;;;4.95;;
34134;SDS011;20410;55.578;12.968;2023-08-21T04:40:44;12.50;;;4.72;;
34134;SDS011;20410;55.578;12.968;2023-08-21T04:43:09;16.02;;;5.50;;
34134;SDS011;20410;55.578;12.968;2023-08-21T04:45:35;10.98;;;4.18;;
34134;SDS011;20410;55.578;12.968;2023-08-21T04:48:02;12.48;;;4.75;;
34134;SDS011;20410;55.578;12.968;2023-08-21T04:50:29;14.63;;;4.88;;
34134;SDS011;20410;55.578;12.968;2023-08-21T04:52:55;12.93;;;4.53;;
34134;SDS011;20410;55.578;12.968;2023-08-21T04:55:20;16.33;;;4.78;;
34134;SDS011;20410;55.578;12.968;2023-08-21T04:57:46;13.27;;;4.57;;
34134;SDS011;20410;55.578;12.968;2023-08-21T05:00:12;13.82;;;4.63;;
34134;SDS011;20410;55.578;12.968;2023-08-21T05:02:37;13.32;;;4.90;;
34134;SDS011;20410;55.578;12.968;2023-08-21T05:05:03;13.85;;;4.65;;
34134;SDS011;20410;55.578;12.968;2023-08-21T05:07:29;12.90;;;4.95;;
34134;SDS011;20410;55.578;12.968;2023-08-21T05:09:58;10.98;;;4.38;;
34134;SDS011;20410;55.578;12.968;2023-08-21T05:12:24;11.55;;;4.20;;
34134;SDS011;20410;55.578;12.968;2023-08-21T05:14:51;13.10;;;4.93;;
34134;SDS011;20410;55.578;12.968;2023-08-21T05:17:16;11.38;;;4.80;;
34134;SDS011;20410;55.578;12.968;2023-08-21T05:19:42;11.15;;;4.43;;
34134;SDS011;20410;55.578;12.968;2023-08-21T05:22:07;10.63;;;4.45;;
34134;SDS011;20410;55.578;12.968;2023-08-21T05:24:33;10.93;;;4.00;;
34134;SDS011;20410;55.578;12.968;2023-08-21T05:26:58;12.48;;;3.90;;
34134;SDS011;20410;55.578;12.968;2023-08-21T05:29:24;10.30;;;4.07;;
34134;SDS011;20410;55.578;12.968;2023-08-21T05:31:50;10.43;;;3.85;;
34134;SDS011;20410;55.578;12.968;2023-08-21T05:34:16;14.50;;;4.13;;
34134;SDS011;20410;55.578;12.968;2023-08-21T05:36:41;12.57;;;4.00;;
34134;SDS011;20410;55.578;12.968;2023-08-21T05:39:07;11.13;;;3.92;;
34134;SDS011;20410;55.578;12.968;2023-08-21T05:41:33;14.57;;;6.78;;
34134;SDS011;20410;55.578;12.968;2023-08-21T05:43:59;11.55;;;3.83;;
34134;SDS011;20410;55.578;12.968;2023-08-21T05:46:24;9.00;;;3.72;;
34134;SDS011;20410;55.578;12.968;2023-08-21T05:48:50;11.15;;;3.65;;
34134;SDS011;20410;55.578;12.968;2023-08-21T05:51:15;9.82;;;3.50;;
34134;SDS011;20410;55.578;12.968;2023-08-21T05:53:41;10.10;;;3.60;;
34134;SDS011;20410;55.578;12.968;2023-08-21T05:56:06;11.65;;;3.85;;
34134;SDS011;20410;55.578;12.968;2023-08-21T05:58:32;8.57;;;3.22;;
34134;SDS011;20410;55.578;12.968;2023-08-21T06:00:58;12.43;;;3.50;;
34134;SDS011;20410;55.578;12.968;2023-08-21T06:03:23;10.18;;;3.75;;
34134;SDS011;20410;55.578;12.968;2023-08-21T06:05:49;11.23;;;3.70;;
34134;SDS011;20410;55.578;12.968;2023-08-21T06:08:15;9.15;;;3.80;;
34134;SDS011;20410;55.578;12.968;2023-08-21T06:10:40;9.73;;;3.80;;
34134;SDS011;20410;55.578;12.968;2023-08-21T06:13:06;10.85;;;3.83;;
34134;SDS011;20410;55.578;12.968;2023-08-21T06:15:31;9.85;;;3.30;;
34134;SDS011;20410;55.578;12.968;2023-08-21T06:17:58;9.55;;;3.17;;
34134;SDS011;20410;55.578;12.968;2023-08-21T06:20:24;12.13;;;3.63;;
34134;SDS011;20410;55.578;12.968;2023-08-21T06:22:49;11.45;;;3.65;;
34134;SDS011;20410;55.578;12.968;2023-08-21T06:25:15;9.18;;;3.50;;
34134;SDS011;20410;55.578;12.968;2023-08-21T06:27:41;7.78;;;2.90;;
34134;SDS011;20410;55.578;12.968;2023-08-21T06:30:06;6.70;;;2.75;;
34134;SDS011;20410;55.578;12.968;2023-08-21T06:32:32;8.88;;;3.20;;
34134;SDS011;20410;55.578;12.968;2023-08-21T06:34:58;10.15;;;3.05;;
34134;SDS011;20410;55.578;12.968;2023-08-21T06:37:24;10.45;;;3.13;;
34134;SDS011;20410;55.578;12.968;2023-08-21T06:39:50;7.50;;;3.05;;
34134;SDS011;20410;55.578;12.968;2023-08-21T06:42:15;6.50;;;2.53;;
34134;SDS011;20410;55.578;12.968;2023-08-21T06:44:41;11.63;;;2.97;;
34134;SDS011;20410;55.578;12.968;2023-08-21T06:47:06;9.10;;;2.88;;
34134;SDS011;20410;55.578;12.968;2023-08-21T06:49:32;12.93;;;3.47;;
34134;SDS011;20410;55.578;12.968;2023-08-21T06:51:58;8.18;;;3.17;;
34134;SDS011;20410;55.578;12.968;2023-08-21T06:54:23;8.13;;;2.92;;
34134;SDS011;20410;55.578;12.968;2023-08-21T06:56:49;9.90;;;2.95;;
34134;SDS011;20410;55.578;12.968;2023-08-21T06:59:14;8.02;;;3.08;;
34134;SDS011;20410;55.578;12.968;2023-08-21T07:01:40;12.65;;;3.28;;
34134;SDS011;20410;55.578;12.968;2023-08-21T07:04:06;8.15;;;2.75;;
34134;SDS011;20410;55.578;12.968;2023-08-21T07:06:31;8.32;;;2.72;;
34134;SDS011;20410;55.578;12.968;2023-08-21T07:08:57;8.07;;;2.95;;
34134;SDS011;20410;55.578;12.968;2023-08-21T07:11:22;10.77;;;3.50;;
34134;SDS011;20410;55.578;12.968;2023-08-21T07:13:48;7.35;;;2.65;;
34134;SDS011;20410;55.578;12.968;2023-08-21T07:16:14;9.65;;;3.03;;
34134;SDS011;20410;55.578;12.968;2023-08-21T07:18:40;10.77;;;2.88;;
34134;SDS011;20410;55.578;12.968;2023-08-21T07:21:05;10.68;;;2.90;;
34134;SDS011;20410;55.578;12.968;2023-08-21T07:23:31;8.05;;;2.63;;
34134;SDS011;20410;55.578;12.968;2023-08-21T07:25:58;8.25;;;3.00;;
34134;SDS011;20410;55.578;12.968;2023-08-21T07:28:24;10.50;;;2.92;;
34134;SDS011;20410;55.578;12.968;2023-08-21T07:30:57;11.63;;;2.75;;
34134;SDS011;20410;55.578;12.968;2023-08-21T07:33:23;8.25;;;2.92;;
34134;SDS011;20410;55.578;12.968;2023-08-21T07:36:01;8.95;;;3.17;;
34134;SDS011;20410;55.578;12.968;2023-08-21T07:38:28;9.73;;;2.85;;
34134;SDS011;20410;55.578;12.968;2023-08-21T07:43:30;7.15;;;2.60;;
34134;SDS011;20410;55.578;12.968;2023-08-21T07:45:56;11.00;;;2.90;;
34134;SDS011;20410;55.578;12.968;2023-08-21T07:48:22;6.90;;;2.50;;
34134;SDS011;20410;55.578;12.968;2023-08-21T07:50:51;6.20;;;2.90;;
34134;SDS011;20410;55.578;12.968;2023-08-21T07:53:18;7.97;;;2.88;;
34134;SDS011;20410;55.578;12.968;2023-08-21T07:55:44;8.70;;;3.08;;
34134;SDS011;20410;55.578;12.968;2023-08-21T07:58:10;5.88;;;2.75;;
34134;SDS011;20410;55.578;12.968;2023-08-21T08:00:36;6.28;;;2.50;;
34134;SDS011;20410;55.578;12.968;2023-08-21T08:03:02;7.18;;;2.70;;
34134;SDS011;20410;55.578;12.968;2023-08-21T08:05:28;9.20;;;2.75;;
34134;SDS011;20410;55.578;12.968;2023-08-21T08:07:54;7.88;;;2.33;;
34134;SDS011;20410;55.578;12.968;2023-08-21T08:10:19;9.25;;;2.92;;
34134;SDS011;20410;55.578;12.968;2023-08-21T08:12:45;6.93;;;2.70;;
34134;SDS011;20410;55.578;12.968;2023-08-21T08:15:10;7.10;;;2.55;;
34134;SDS011;20410;55.578;12.968;2023-08-21T08:17:36;10.38;;;2.95;;
34134;SDS011;20410;55.578;12.968;2023-08-21T08:20:01;9.88;;;2.63;;
34134;SDS011;20410;55.578;12.968;2023-08-21T08:22:27;8.50;;;2.60;;
34134;SDS011;20410;55.578;12.968;2023-08-21T08:24:53;7.72;;;2.50;;
34134;SDS011;20410;55.578;12.968;2023-08-21T08:27:18;7.93;;;2.85;;
34134;SDS011;20410;55.578;12.968;2023-08-21T08:29:44;9.60;;;2.70;;
34134;SDS011;20410;55.578;12.968;2023-08-21T08:32:09;7.07;;;2.55;;
34134;SDS011;20410;55.578;12.968;2023-08-21T08:34:35;5.45;;;2.63;;
34134;SDS011;20410;55.578;12.968;2023-08-21T08:37:00;6.78;;;2.65;;
34134;SDS011;20410;55.578;12.968;2023-08-21T08:39:26;9.82;;;2.70;;
34134;SDS011;20410;55.578;12.968;2023-08-21T08:41:59;6.78;;;2.30;;
34134;SDS011;20410;55.578;12.968;2023-08-21T08:44:28;9.90;;;3.00;;
34134;SDS011;20410;55.578;12.968;2023-08-21T08:46:55;7.25;;;2.60;;
34134;SDS011;20410;55.578;12.968;2023-08-21T08:49:21;8.35;;;2.92;;
34134;SDS011;20410;55.578;12.968;2023-08-21T08:51:49;7.25;;;2.95;;
34134;SDS011;20410;55.578;12.968;2023-08-21T08:54:16;8.68;;;3.03;;
34134;SDS011;20410;55.578;12.968;2023-08-21T08:56:43;6.97;;;2.60;;
34134;SDS011;20410;55.578;12.968;2023-08-21T08:59:08;8.20;;;2.50;;
34134;SDS011;20410;55.578;12.968;2023-08-21T09:01:34;8.68;;;2.50;;
34134;SDS011;20410;55.578;12.968;2023-08-21T09:04:00;7.50;;;2.85;;
34134;SDS011;20410;55.578;12.968;2023-08-21T09:06:26;7.32;;;2.60;;
34134;SDS011;20410;55.578;12.968;2023-08-21T09:08:56;8.23;;;2.45;;
34134;SDS011;20410;55.578;12.968;2023-08-21T09:11:22;5.53;;;2.45;;
34134;SDS011;20410;55.578;12.968;2023-08-21T09:13:49;8.77;;;2.65;;
34134;SDS011;20410;55.578;12.968;2023-08-21T09:16:15;9.32;;;2.80;;
34134;SDS011;20410;55.578;12.968;2023-08-21T09:21:21;6.85;;;2.47;;
34134;SDS011;20410;55.578;12.968;2023-08-21T09:23:49;8.98;;;2.90;;
34134;SDS011;20410;55.578;12.968;2023-08-21T09:26:22;7.10;;;2.90;;
34134;SDS011;20410;55.578;12.968;2023-08-21T09:28:48;7.95;;;2.78;;
34134;SDS011;20410;55.578;12.968;2023-08-21T09:31:15;7.57;;;2.40;;
34134;SDS011;20410;55.578;12.968;2023-08-21T09:33:41;6.82;;;2.50;;
34134;SDS011;20410;55.578;12.968;2023-08-21T09:36:08;6.72;;;2.65;;
34134;SDS011;20410;55.578;12.968;2023-08-21T09:38:34;10.13;;;2.65;;
34134;SDS011;20410;55.578;12.968;2023-08-21T09:41:03;7.15;;;2.45;;
34134;SDS011;20410;55.578;12.968;2023-08-21T09:43:28;6.57;;;2.38;;
34134;SDS011;20410;55.578;12.968;2023-08-21T09:45:54;5.20;;;2.28;;
34134;SDS011;20410;55.578;12.968;2023-08-21T09:48:24;7.97;;;2.58;;
34134;SDS011;20410;55.578;12.968;2023-08-21T09:50:53;8.25;;;2.05;;
34134;SDS011;20410;55.578;12.968;2023-08-21T09:53:22;7.82;;;2.30;;
34134;SDS011;20410;55.578;12.968;2023-08-21T09:55:52;4.20;;;1.83;;
34134;SDS011;20410;55.578;12.968;2023-08-21T09:58:19;6.53;;;1.83;;
34134;SDS011;20410;55.578;12.968;2023-08-21T10:00:45;6.05;;;1.90;;
34134;SDS011;20410;55.578;12.968;2023-08-21T10:03:13;5.53;;;2.25;;
34134;SDS011;20410;55.578;12.968;2023-08-21T10:05:43;5.45;;;1.85;;
34134;SDS011;20410;55.578;12.968;2023-08-21T10:08:10;5.25;;;2.30;;
34134;SDS011;20410;55.578;12.968;2023-08-21T10:10:38;4.68;;;1.92;;
34134;SDS011;20410;55.578;12.968;2023-08-21T10:13:04;5.30;;;2.15;;
34134;SDS011;20410;55.578;12.968;2023-08-21T10:15:31;7.13;;;2.20;;
34134;SDS011;20410;55.578;12.968;2023-08-21T10:17:58;6.38;;;2.20;;
34134;SDS011;20410;55.578;12.968;2023-08-21T10:20:47;4.78;;;2.15;;
34134;SDS011;20410;55.578;12.968;2023-08-21T10:23:29;9.00;;;2.22;;
34134;SDS011;20410;55.578;12.968;2023-08-21T10:25:59;5.68;;;1.95;;
34134;SDS011;20410;55.578;12.968;2023-08-21T10:31:30;5.30;;;1.98;;
34134;SDS011;20410;55.578;12.968;2023-08-21T10:34:07;5.10;;;1.90;;
34134;SDS011;20410;55.578;12.968;2023-08-21T10:39:13;5.05;;;2.13;;
34134;SDS011;20410;55.578;12.968;2023-08-21T10:41:39;8.60;;;2.45;;
34134;SDS011;20410;55.578;12.968;2023-08-21T10:44:06;7.18;;;1.95;;
34134;SDS011;20410;55.578;12.968;2023-08-21T10:47:12;5.28;;;1.92;;
34134;SDS011;20410;55.578;12.968;2023-08-21T10:49:37;5.72;;;1.75;;
34134;SDS011;20410;55.578;12.968;2023-08-21T10:52:02;8.63;;;2.20;;
34134;SDS011;20410;55.578;12.968;2023-08-21T10:54:42;5.88;;;2.15;;
34134;SDS011;20410;55.578;12.968;2023-08-21T10:57:11;4.32;;;2.00;;
34134;SDS011;20410;55.578;12.968;2023-08-21T10:59:36;4.50;;;1.83;;
34134;SDS011;20410;55.578;12.968;2023-08-21T11:02:02;6.03;;;1.90;;
34134;SDS011;20410;55.578;12.968;2023-08-21T11:04:28;4.65;;;1.95;;
34134;SDS011;20410;55.578;12.968;2023-08-21T11:06:53;5.10;;;2.00;;
34134;SDS011;20410;55.578;12.968;2023-08-21T11:09:21;7.05;;;2.10;;
34134;SDS011;20410;55.578;12.968;2023-08-21T11:11:46;3.92;;;1.90;;
34134;SDS011;20410;55.578;12.968;2023-08-21T11:14:12;7.35;;;1.92;;
34134;SDS011;20410;55.578;12.968;2023-08-21T11:16:38;6.10;;;2.10;;
34134;SDS011;20410;55.578;12.968;2023-08-21T11:19:04;6.07;;;1.90;;
34134;SDS011;20410;55.578;12.968;2023-08-21T11:21:30;8.55;;;2.05;;
34134;SDS011;20410;55.578;12.968;2023-08-21T11:23:56;4.43;;;1.77;;
34134;SDS011;20410;55.578;12.968;2023-08-21T11:26:21;4.97;;;2.00;;
34134;SDS011;20410;55.578;12.968;2023-08-21T11:28:50;5.65;;;2.00;;
34134;SDS011;20410;55.578;12.968;2023-08-21T11:31:15;6.25;;;1.92;;
34134;SDS011;20410;55.578;12.968;2023-08-21T11:33:41;5.13;;;1.90;;
34134;SDS011;20410;55.578;12.968;2023-08-21T11:36:15;4.75;;;2.00;;
34134;SDS011;20410;55.578;12.968;2023-08-21T11:38:40;5.32;;;1.85;;
34134;SDS011;20410;55.578;12.968;2023-08-21T11:41:06;4.85;;;2.00;;
34134;SDS011;20410;55.578;12.968;2023-08-21T11:46:02;5.10;;;1.95;;
34134;SDS011;20410;55.578;12.968;2023-08-21T11:48:29;6.07;;;2.05;;
34134;SDS011;20410;55.578;12.968;2023-08-21T11:50:55;5.40;;;1.90;;
34134;SDS011;20410;55.578;12.968;2023-08-21T11:53:42;5.82;;;2.00;;
34134;SDS011;20410;55.578;12.968;2023-08-21T11:56:11;4.97;;;1.88;;
34134;SDS011;20410;55.578;12.968;2023-08-21T11:58:39;5.20;;;1.75;;
34134;SDS011;20410;55.578;12.968;2023-08-21T12:01:05;6.63;;;1.70;;
34134;SDS011;20410;55.578;12.968;2023-08-21T12:03:39;5.75;;;2.30;;
34134;SDS011;20410;55.578;12.968;2023-08-21T12:06:08;7.32;;;2.00;;
34134;SDS011;20410;55.578;12.968;2023-08-21T12:08:35;4.55;;;1.88;;
34134;SDS011;20410;55.578;12.968;2023-08-21T12:11:01;4.80;;;1.90;;
34134;SDS011;20410;55.578;12.968;2023-08-21T12:13:27;4.18;;;1.70;;
34134;SDS011;20410;55.578;12.968;2023-08-21T12:15:52;4.82;;;1.67;;
34134;SDS011;20410;55.578;12.968;2023-08-21T12:18:18;3.80;;;1.83;;
34134;SDS011;20410;55.578;12.968;2023-08-21T12:20:44;4.53;;;2.05;;
34134;SDS011;20410;55.578;12.968;2023-08-21T12:23:09;7.22;;;2.17;;
34134;SDS011;20410;55.578;12.968;2023-08-21T12:25:35;6.60;;;1.90;;
34134;SDS011;20410;55.578;12.968;2023-08-21T12:28:00;3.97;;;1.80;;
34134;SDS011;20410;55.578;12.968;2023-08-21T12:30:26;5.93;;;1.83;;
34134;SDS011;20410;55.578;12.968;2023-08-21T12:32:51;5.63;;;2.15;;
34134;SDS011;20410;55.578;12.968;2023-08-21T12:35:17;4.15;;;1.80;;
34134;SDS011;20410;55.578;12.968;2023-08-21T12:37:42;3.65;;;1.85;;
34134;SDS011;20410;55.578;12.968;2023-08-21T12:40:08;3.85;;;1.85;;
34134;SDS011;20410;55.578;12.968;2023-08-21T12:42:34;3.30;;;1.85;;
34134;SDS011;20410;55.578;12.968;2023-08-21T12:44:59;3.75;;;1.92;;
34134;SDS011;20410;55.578;12.968;2023-08-21T12:47:25;4.80;;;2.03;;
34134;SDS011;20410;55.578;12.968;2023-08-21T12:49:51;5.05;;;1.92;;
34134;SDS011;20410;55.578;12.968;2023-08-21T12:52:16;4.60;;;1.70;;
34134;SDS011;20410;55.578;12.968;2023-08-21T12:54:42;5.03;;;1.58;;
34134;SDS011;20410;55.578;12.968;2023-08-21T12:57:08;4.32;;;2.00;;
34134;SDS011;20410;55.578;12.968;2023-08-21T12:59:34;4.55;;;1.80;;
34134;SDS011;20410;55.578;12.968;2023-08-21T13:02:00;6.68;;;2.17;;
34134;SDS011;20410;55.578;12.968;2023-08-21T13:04:26;4.80;;;2.00;;
34134;SDS011;20410;55.578;12.968;2023-08-21T13:06:51;6.07;;;1.95;;
34134;SDS011;20410;55.578;12.968;2023-08-21T13:09:17;5.53;;;1.85;;
34134;SDS011;20410;55.578;12.968;2023-08-21T13:11:43;2.88;;;1.80;;
34134;SDS011;20410;55.578;12.968;2023-08-21T13:14:08;4.97;;;2.05;;
34134;SDS011;20410;55.578;12.968;2023-08-21T13:16:34;4.25;;;1.70;;
34134;SDS011;20410;55.578;12.968;2023-08-21T13:18:59;5.40;;;1.85;;
34134;SDS011;20410;55.578;12.968;2023-08-21T13:21:25;3.42;;;1.67;;
34134;SDS011;20410;55.578;12.968;2023-08-21T13:23:50;3.67;;;1.70;;
34134;SDS011;20410;55.578;12.968;2023-08-21T13:26:16;5.13;;;1.90;;
34134;SDS011;20410;55.578;12.968;2023-08-21T13:28:41;3.47;;;1.55;;
34134;SDS011;20410;55.578;12.968;2023-08-21T13:31:07;5.75;;;1.92;;
34134;SDS011;20410;55.578;12.968;2023-08-21T13:33:43;2.03;;;1.20;;
34134;SDS011;20410;55.578;12.968;2023-08-21T13:36:13;2.63;;;1.40;;
34134;SDS011;20410;55.578;12.968;2023-08-21T13:38:39;3.47;;;1.40;;
34134;SDS011;20410;55.578;12.968;2023-08-21T13:41:05;3.72;;;1.85;;
34134;SDS011;20410;55.578;12.968;2023-08-21T13:43:31;2.92;;;1.38;;
34134;SDS011;20410;55.578;12.968;2023-08-21T13:45:56;4.85;;;1.73;;
34134;SDS011;20410;55.578;12.968;2023-08-21T13:48:22;3.70;;;1.55;;
34134;SDS011;20410;55.578;12.968;2023-08-21T13:50:47;3.80;;;1.50;;
34134;SDS011;20410;55.578;12.968;2023-08-21T13:53:13;3.05;;;1.42;;
34134;SDS011;20410;55.578;12.968;2023-08-21T13:55:38;3.05;;;1.45;;
34134;SDS011;20410;55.578;12.968;2023-08-21T13:58:04;3.58;;;1.70;;
34134;SDS011;20410;55.578;12.968;2023-08-21T14:00:30;3.20;;;1.40;;
34134;SDS011;20410;55.578;12.968;2023-08-21T14:02:55;3.00;;;1.45;;
34134;SDS011;20410;55.578;12.968;2023-08-21T14:05:21;3.30;;;1.40;;
34134;SDS011;20410;55.578;12.968;2023-08-21T14:07:47;4.35;;;1.50;;
34134;SDS011;20410;55.578;12.968;2023-08-21T14:10:12;4.45;;;1.77;;
34134;SDS011;20410;55.578;12.968;2023-08-21T14:12:39;3.03;;;1.60;;
34134;SDS011;20410;55.578;12.968;2023-08-21T14:15:05;4.45;;;1.50;;
34134;SDS011;20410;55.578;12.968;2023-08-21T14:17:31;2.70;;;1.75;;
34134;SDS011;20410;55.578;12.968;2023-08-21T14:19:57;5.93;;;1.60;;
34134;SDS011;20410;55.578;12.968;2023-08-21T14:22:22;3.65;;;1.70;;
34134;SDS011;20410;55.578;12.968;2023-08-21T14:24:48;4.18;;;1.63;;
34134;SDS011;20410;55.578;12.968;2023-08-21T14:27:13;3.00;;;1.50;;
34134;SDS011;20410;55.578;12.968;2023-08-21T14:29:39;3.35;;;1.58;;
34134;SDS011;20410;55.578;12.968;2023-08-21T14:32:05;2.80;;;1.52;;
34134;SDS011;20410;55.578;12.968;2023-08-21T14:34:30;3.80;;;1.73;;
34134;SDS011;20410;55.578;12.968;2023-08-21T14:36:56;5.10;;;2.05;;
34134;SDS011;20410;55.578;12.968;2023-08-21T14:39:23;4.95;;;1.85;;